sensor_id;sensor_type;location;lat;lon;timestamp;P1;durP1;ratioP1;P2;durP2;ratioP2
39540;SDS011;25219;52.244;21.006;2023-05-13T00:01:52;15.47;;;7.53;;
39540;SDS011;25219;52.244;21.006;2023-05-13T00:04:17;13.27;;;8.15;;
39540;SDS011;25219;52.244;21.006;2023-05-13T00:06:43;20.63;;;8.13;;
39540;SDS011;25219;52.244;21.006;2023-05-13T00:09:08;11.27;;;7.23;;
39540;SDS011;25219;52.244;21.006;2023-05-13T00:11:33;16.98;;;8.00;;
39540;SDS011;25219;52.244;21.006;2023-05-13T00:13:59;13.98;;;8.48;;
39540;SDS011;25219;52.244;21.006;2023-05-13T00:16:24;14.38;;;7.25;;
39540;SDS011;25219;52.244;21.006;2023-05-13T00:18:51;13.63;;;7.72;;
39540;SDS011;25219;52.244;21.006;2023-05-13T00:21:17;17.40;;;7.55;;
39540;SDS011;25219;52.244;21.006;2023-05-13T00:23:42;16.48;;;7.53;;
39540;SDS011;25219;52.244;21.006;2023-05-13T00:26:07;16.08;;;7.75;;
39540;SDS011;25219;52.244;21.006;2023-05-13T00:28:33;13.60;;;7.30;;
39540;SDS011;25219;52.244;21.006;2023-05-13T00:30:58;12.95;;;7.90;;
39540;SDS011;25219;52.244;21.006;2023-05-13T00:33:23;14.40;;;8.27;;
39540;SDS011;25219;52.244;21.006;2023-05-13T00:35:48;12.88;;;7.80;;
39540;SDS011;25219;52.244;21.006;2023-05-13T00:38:14;19.97;;;8.23;;
39540;SDS011;25219;52.244;21.006;2023-05-13T00:40:39;18.00;;;7.85;;
39540;SDS011;25219;52.244;21.006;2023-05-13T00:43:06;20.40;;;9.13;;
39540;SDS011;25219;52.244;21.006;2023-05-13T00:45:31;16.20;;;7.93;;
39540;SDS011;25219;52.244;21.006;2023-05-13T00:47:57;17.80;;;9.30;;
39540;SDS011;25219;52.244;21.006;2023-05-13T00:50:22;16.70;;;9.15;;
39540;SDS011;25219;52.244;21.006;2023-05-13T00:52:47;18.60;;;8.67;;
39540;SDS011;25219;52.244;21.006;2023-05-13T00:55:14;15.75;;;8.45;;
39540;SDS011;25219;52.244;21.006;2023-05-13T00:57:39;24.40;;;10.30;;
39540;SDS011;25219;52.244;21.006;2023-05-13T01:00:04;17.83;;;8.70;;
39540;SDS011;25219;52.244;21.006;2023-05-13T01:02:32;14.18;;;8.85;;
39540;SDS011;25219;52.244;21.006;2023-05-13T01:05:02;14.43;;;8.15;;
39540;SDS011;25219;52.244;21.006;2023-05-13T01:10:05;13.60;;;8.10;;
39540;SDS011;25219;52.244;21.006;2023-05-13T01:12:37;16.30;;;8.27;;
39540;SDS011;25219;52.244;21.006;2023-05-13T01:15:07;16.65;;;8.90;;
39540;SDS011;25219;52.244;21.006;2023-05-13T01:20:20;25.50;;;9.05;;
39540;SDS011;25219;52.244;21.006;2023-05-13T01:22:45;20.88;;;8.27;;
39540;SDS011;25219;52.244;21.006;2023-05-13T01:25:10;17.17;;;8.13;;
39540;SDS011;25219;52.244;21.006;2023-05-13T01:27:35;17.97;;;9.40;;
39540;SDS011;25219;52.244;21.006;2023-05-13T01:30:01;18.83;;;8.07;;
39540;SDS011;25219;52.244;21.006;2023-05-13T01:32:26;16.42;;;8.20;;
39540;SDS011;25219;52.244;21.006;2023-05-13T01:34:51;17.60;;;8.88;;
39540;SDS011;25219;52.244;21.006;2023-05-13T01:37:18;18.00;;;8.32;;
39540;SDS011;25219;52.244;21.006;2023-05-13T01:39:43;17.58;;;8.98;;
39540;SDS011;25219;52.244;21.006;2023-05-13T01:42:08;18.77;;;8.75;;
39540;SDS011;25219;52.244;21.006;2023-05-13T01:44:34;21.08;;;9.98;;
39540;SDS011;25219;52.244;21.006;2023-05-13T01:46:59;13.55;;;8.77;;
39540;SDS011;25219;52.244;21.006;2023-05-13T01:49:24;15.90;;;9.02;;
39540;SDS011;25219;52.244;21.006;2023-05-13T01:51:50;21.27;;;8.80;;
39540;SDS011;25219;52.244;21.006;2023-05-13T01:54:15;19.73;;;8.82;;
39540;SDS011;25219;52.244;21.006;2023-05-13T01:56:40;18.90;;;8.90;;
39540;SDS011;25219;52.244;21.006;2023-05-13T01:59:06;19.57;;;9.03;;
39540;SDS011;25219;52.244;21.006;2023-05-13T02:01:31;23.08;;;8.35;;
39540;SDS011;25219;52.244;21.006;2023-05-13T02:03:57;18.33;;;9.07;;
39540;SDS011;25219;52.244;21.006;2023-05-13T02:06:23;17.13;;;9.93;;
39540;SDS011;25219;52.244;21.006;2023-05-13T02:08:48;15.00;;;8.65;;
39540;SDS011;25219;52.244;21.006;2023-05-13T02:11:14;17.77;;;10.00;;
39540;SDS011;25219;52.244;21.006;2023-05-13T02:13:39;17.70;;;9.40;;
39540;SDS011;25219;52.244;21.006;2023-05-13T02:16:04;18.70;;;10.30;;
39540;SDS011;25219;52.244;21.006;2023-05-13T02:18:30;21.40;;;10.07;;
39540;SDS011;25219;52.244;21.006;2023-05-13T02:20:56;21.08;;;9.77;;
39540;SDS011;25219;52.244;21.006;2023-05-13T02:23:21;17.20;;;8.87;;
39540;SDS011;25219;52.244;21.006;2023-05-13T02:25:47;19.27;;;9.50;;
39540;SDS011;25219;52.244;21.006;2023-05-13T02:28:12;21.75;;;10.38;;
39540;SDS011;25219;52.244;21.006;2023-05-13T02:30:37;23.40;;;10.85;;
39540;SDS011;25219;52.244;21.006;2023-05-13T02:33:02;19.33;;;9.90;;
39540;SDS011;25219;52.244;21.006;2023-05-13T02:35:27;19.80;;;9.90;;
39540;SDS011;25219;52.244;21.006;2023-05-13T02:37:56;23.17;;;11.55;;
39540;SDS011;25219;52.244;21.006;2023-05-13T02:40:21;18.75;;;11.20;;
39540;SDS011;25219;52.244;21.006;2023-05-13T02:42:46;20.53;;;10.87;;
39540;SDS011;25219;52.244;21.006;2023-05-13T02:45:11;18.92;;;10.77;;
39540;SDS011;25219;52.244;21.006;2023-05-13T02:47:37;16.90;;;9.30;;
39540;SDS011;25219;52.244;21.006;2023-05-13T02:50:04;19.02;;;9.48;;
39540;SDS011;25219;52.244;21.006;2023-05-13T02:52:30;18.75;;;9.52;;
39540;SDS011;25219;52.244;21.006;2023-05-13T02:54:55;19.45;;;8.88;;
39540;SDS011;25219;52.244;21.006;2023-05-13T02:57:20;20.20;;;9.88;;
39540;SDS011;25219;52.244;21.006;2023-05-13T02:59:45;24.00;;;9.57;;
39540;SDS011;25219;52.244;21.006;2023-05-13T03:02:11;16.83;;;8.67;;
39540;SDS011;25219;52.244;21.006;2023-05-13T03:04:36;19.97;;;9.63;;
39540;SDS011;25219;52.244;21.006;2023-05-13T03:07:01;20.53;;;9.93;;
39540;SDS011;25219;52.244;21.006;2023-05-13T03:09:26;16.40;;;9.50;;
39540;SDS011;25219;52.244;21.006;2023-05-13T03:11:51;21.07;;;10.00;;
39540;SDS011;25219;52.244;21.006;2023-05-13T03:14:17;21.52;;;10.00;;
39540;SDS011;25219;52.244;21.006;2023-05-13T03:16:42;15.97;;;9.23;;
39540;SDS011;25219;52.244;21.006;2023-05-13T03:19:08;25.15;;;10.38;;
39540;SDS011;25219;52.244;21.006;2023-05-13T03:21:34;19.63;;;9.93;;
39540;SDS011;25219;52.244;21.006;2023-05-13T03:23:59;18.97;;;9.73;;
39540;SDS011;25219;52.244;21.006;2023-05-13T03:26:24;19.75;;;9.85;;
39540;SDS011;25219;52.244;21.006;2023-05-13T03:28:50;22.20;;;10.38;;
39540;SDS011;25219;52.244;21.006;2023-05-13T03:31:15;19.40;;;10.33;;
39540;SDS011;25219;52.244;21.006;2023-05-13T03:33:40;21.05;;;10.70;;
39540;SDS011;25219;52.244;21.006;2023-05-13T03:36:06;23.47;;;10.87;;
39540;SDS011;25219;52.244;21.006;2023-05-13T03:38:31;19.20;;;10.40;;
39540;SDS011;25219;52.244;21.006;2023-05-13T03:40:56;24.02;;;11.05;;
39540;SDS011;25219;52.244;21.006;2023-05-13T03:43:21;18.47;;;10.70;;
39540;SDS011;25219;52.244;21.006;2023-05-13T03:45:47;24.97;;;11.07;;
39540;SDS011;25219;52.244;21.006;2023-05-13T03:48:12;19.33;;;10.75;;
39540;SDS011;25219;52.244;21.006;2023-05-13T03:50:37;23.02;;;10.55;;
39540;SDS011;25219;52.244;21.006;2023-05-13T03:53:03;18.43;;;11.27;;
39540;SDS011;25219;52.244;21.006;2023-05-13T03:55:28;18.70;;;10.87;;
39540;SDS011;25219;52.244;21.006;2023-05-13T03:57:53;21.50;;;10.83;;
39540;SDS011;25219;52.244;21.006;2023-05-13T04:00:18;22.27;;;10.80;;
39540;SDS011;25219;52.244;21.006;2023-05-13T04:02:43;24.63;;;11.23;;
39540;SDS011;25219;52.244;21.006;2023-05-13T04:05:09;21.03;;;11.47;;
39540;SDS011;25219;52.244;21.006;2023-05-13T04:07:34;23.55;;;11.18;;
39540;SDS011;25219;52.244;21.006;2023-05-13T04:10:00;21.20;;;10.77;;
39540;SDS011;25219;52.244;21.006;2023-05-13T04:12:25;23.17;;;10.53;;
39540;SDS011;25219;52.244;21.006;2023-05-13T04:14:50;20.73;;;11.57;;
39540;SDS011;25219;52.244;21.006;2023-05-13T04:17:15;22.67;;;11.57;;
39540;SDS011;25219;52.244;21.006;2023-05-13T04:19:41;24.77;;;10.70;;
39540;SDS011;25219;52.244;21.006;2023-05-13T04:22:06;18.40;;;10.20;;
39540;SDS011;25219;52.244;21.006;2023-05-13T04:24:31;21.97;;;11.00;;
39540;SDS011;25219;52.244;21.006;2023-05-13T04:26:56;24.20;;;11.52;;
39540;SDS011;25219;52.244;21.006;2023-05-13T04:29:21;23.63;;;12.00;;
39540;SDS011;25219;52.244;21.006;2023-05-13T04:31:47;28.43;;;10.67;;
39540;SDS011;25219;52.244;21.006;2023-05-13T04:34:12;27.77;;;12.00;;
39540;SDS011;25219;52.244;21.006;2023-05-13T04:36:37;23.40;;;11.40;;
39540;SDS011;25219;52.244;21.006;2023-05-13T04:39:02;21.90;;;10.50;;
39540;SDS011;25219;52.244;21.006;2023-05-13T04:41:27;22.00;;;9.90;;
39540;SDS011;25219;52.244;21.006;2023-05-13T04:43:53;23.87;;;10.07;;
39540;SDS011;25219;52.244;21.006;2023-05-13T04:46:18;17.87;;;9.80;;
39540;SDS011;25219;52.244;21.006;2023-05-13T04:48:43;15.97;;;9.60;;
39540;SDS011;25219;52.244;21.006;2023-05-13T04:51:12;17.85;;;9.77;;
39540;SDS011;25219;52.244;21.006;2023-05-13T04:53:37;20.48;;;9.27;;
39540;SDS011;25219;52.244;21.006;2023-05-13T04:56:02;27.67;;;9.80;;
39540;SDS011;25219;52.244;21.006;2023-05-13T04:58:28;14.93;;;8.85;;
39540;SDS011;25219;52.244;21.006;2023-05-13T05:00:53;21.60;;;9.47;;
39540;SDS011;25219;52.244;21.006;2023-05-13T05:03:19;18.05;;;9.45;;
39540;SDS011;25219;52.244;21.006;2023-05-13T05:05:44;17.63;;;9.40;;
39540;SDS011;25219;52.244;21.006;2023-05-13T05:08:09;23.50;;;8.80;;
39540;SDS011;25219;52.244;21.006;2023-05-13T05:10:35;12.70;;;8.13;;
39540;SDS011;25219;52.244;21.006;2023-05-13T05:13:00;16.10;;;9.03;;
39540;SDS011;25219;52.244;21.006;2023-05-13T05:15:25;19.93;;;9.50;;
39540;SDS011;25219;52.244;21.006;2023-05-13T05:17:50;23.67;;;8.83;;
39540;SDS011;25219;52.244;21.006;2023-05-13T05:20:16;16.70;;;8.27;;
39540;SDS011;25219;52.244;21.006;2023-05-13T05:22:41;16.52;;;8.52;;
39540;SDS011;25219;52.244;21.006;2023-05-13T05:25:07;16.27;;;7.57;;
39540;SDS011;25219;52.244;21.006;2023-05-13T05:27:32;12.05;;;6.65;;
39540;SDS011;25219;52.244;21.006;2023-05-13T05:29:57;19.53;;;7.77;;
39540;SDS011;25219;52.244;21.006;2023-05-13T05:32:22;17.87;;;7.40;;
39540;SDS011;25219;52.244;21.006;2023-05-13T05:34:48;21.95;;;8.32;;
39540;SDS011;25219;52.244;21.006;2023-05-13T05:37:13;17.90;;;7.25;;
39540;SDS011;25219;52.244;21.006;2023-05-13T05:39:39;14.80;;;8.03;;
39540;SDS011;25219;52.244;21.006;2023-05-13T05:42:05;17.17;;;7.35;;
39540;SDS011;25219;52.244;21.006;2023-05-13T05:44:30;18.10;;;8.02;;
39540;SDS011;25219;52.244;21.006;2023-05-13T05:46:56;16.87;;;8.60;;
39540;SDS011;25219;52.244;21.006;2023-05-13T05:49:21;18.07;;;8.50;;
39540;SDS011;25219;52.244;21.006;2023-05-13T05:51:46;17.90;;;7.63;;
39540;SDS011;25219;52.244;21.006;2023-05-13T05:54:11;15.13;;;8.87;;
39540;SDS011;25219;52.244;21.006;2023-05-13T05:56:36;17.53;;;7.80;;
39540;SDS011;25219;52.244;21.006;2023-05-13T05:59:02;17.50;;;8.07;;
39540;SDS011;25219;52.244;21.006;2023-05-13T06:01:28;16.30;;;7.90;;
39540;SDS011;25219;52.244;21.006;2023-05-13T06:03:57;14.18;;;8.05;;
39540;SDS011;25219;52.244;21.006;2023-05-13T06:06:22;16.07;;;7.73;;
39540;SDS011;25219;52.244;21.006;2023-05-13T06:08:47;23.53;;;8.30;;
39540;SDS011;25219;52.244;21.006;2023-05-13T06:11:12;18.93;;;8.27;;
39540;SDS011;25219;52.244;21.006;2023-05-13T06:13:37;21.37;;;7.77;;
39540;SDS011;25219;52.244;21.006;2023-05-13T06:16:03;11.13;;;6.90;;
39540;SDS011;25219;52.244;21.006;2023-05-13T06:18:28;16.85;;;7.05;;
39540;SDS011;25219;52.244;21.006;2023-05-13T06:20:53;12.37;;;6.93;;
39540;SDS011;25219;52.244;21.006;2023-05-13T06:23:18;16.50;;;7.73;;
39540;SDS011;25219;52.244;21.006;2023-05-13T06:25:44;14.20;;;6.85;;
39540;SDS011;25219;52.244;21.006;2023-05-13T06:28:09;12.80;;;6.88;;
39540;SDS011;25219;52.244;21.006;2023-05-13T06:30:35;13.88;;;5.95;;
39540;SDS011;25219;52.244;21.006;2023-05-13T06:33:01;11.25;;;6.45;;
39540;SDS011;25219;52.244;21.006;2023-05-13T06:35:27;12.35;;;5.65;;
39540;SDS011;25219;52.244;21.006;2023-05-13T06:37:52;14.32;;;5.88;;
39540;SDS011;25219;52.244;21.006;2023-05-13T06:40:17;11.23;;;5.87;;
39540;SDS011;25219;52.244;21.006;2023-05-13T06:42:43;15.53;;;5.70;;
39540;SDS011;25219;52.244;21.006;2023-05-13T06:45:08;9.50;;;5.37;;
39540;SDS011;25219;52.244;21.006;2023-05-13T06:47:33;9.27;;;5.97;;
39540;SDS011;25219;52.244;21.006;2023-05-13T06:49:59;12.10;;;5.63;;
39540;SDS011;25219;52.244;21.006;2023-05-13T06:52:24;15.05;;;6.00;;
39540;SDS011;25219;52.244;21.006;2023-05-13T06:54:50;12.03;;;6.00;;
39540;SDS011;25219;52.244;21.006;2023-05-13T06:57:15;11.48;;;5.78;;
39540;SDS011;25219;52.244;21.006;2023-05-13T06:59:43;11.68;;;5.28;;
39540;SDS011;25219;52.244;21.006;2023-05-13T07:02:08;10.00;;;5.82;;
39540;SDS011;25219;52.244;21.006;2023-05-13T07:04:35;11.90;;;5.50;;
39540;SDS011;25219;52.244;21.006;2023-05-13T07:07:00;11.97;;;5.50;;
39540;SDS011;25219;52.244;21.006;2023-05-13T07:09:25;11.83;;;5.27;;
39540;SDS011;25219;52.244;21.006;2023-05-13T07:11:51;13.18;;;5.32;;
39540;SDS011;25219;52.244;21.006;2023-05-13T07:14:16;12.43;;;6.03;;
39540;SDS011;25219;52.244;21.006;2023-05-13T07:16:41;9.10;;;5.27;;
39540;SDS011;25219;52.244;21.006;2023-05-13T07:19:06;11.90;;;5.90;;
39540;SDS011;25219;52.244;21.006;2023-05-13T07:21:32;14.57;;;6.20;;
39540;SDS011;25219;52.244;21.006;2023-05-13T07:23:57;12.13;;;6.00;;
39540;SDS011;25219;52.244;21.006;2023-05-13T07:26:22;14.07;;;5.03;;
39540;SDS011;25219;52.244;21.006;2023-05-13T07:28:47;14.90;;;6.33;;
39540;SDS011;25219;52.244;21.006;2023-05-13T07:31:13;8.07;;;5.17;;
39540;SDS011;25219;52.244;21.006;2023-05-13T07:33:38;12.67;;;5.20;;
39540;SDS011;25219;52.244;21.006;2023-05-13T07:36:03;8.83;;;4.73;;
39540;SDS011;25219;52.244;21.006;2023-05-13T07:38:29;19.13;;;4.55;;
39540;SDS011;25219;52.244;21.006;2023-05-13T07:40:54;9.67;;;4.90;;
39540;SDS011;25219;52.244;21.006;2023-05-13T07:43:20;11.50;;;4.40;;
39540;SDS011;25219;52.244;21.006;2023-05-13T07:45:48;9.82;;;4.50;;
39540;SDS011;25219;52.244;21.006;2023-05-13T07:48:13;10.32;;;4.93;;
39540;SDS011;25219;52.244;21.006;2023-05-13T07:50:38;14.20;;;5.07;;
39540;SDS011;25219;52.244;21.006;2023-05-13T07:53:04;12.70;;;4.97;;
39540;SDS011;25219;52.244;21.006;2023-05-13T07:55:29;10.10;;;4.30;;
39540;SDS011;25219;52.244;21.006;2023-05-13T07:57:54;14.75;;;4.32;;
39540;SDS011;25219;52.244;21.006;2023-05-13T08:00:19;10.17;;;4.03;;
39540;SDS011;25219;52.244;21.006;2023-05-13T08:02:44;7.07;;;4.63;;
39540;SDS011;25219;52.244;21.006;2023-05-13T08:05:10;9.30;;;3.50;;
39540;SDS011;25219;52.244;21.006;2023-05-13T08:07:36;10.50;;;3.65;;
39540;SDS011;25219;52.244;21.006;2023-05-13T08:10:01;10.37;;;3.77;;
39540;SDS011;25219;52.244;21.006;2023-05-13T08:12:26;11.35;;;3.40;;
39540;SDS011;25219;52.244;21.006;2023-05-13T08:14:51;7.20;;;3.33;;
39540;SDS011;25219;52.244;21.006;2023-05-13T08:17:17;6.63;;;3.30;;
39540;SDS011;25219;52.244;21.006;2023-05-13T08:19:43;6.47;;;3.42;;
39540;SDS011;25219;52.244;21.006;2023-05-13T08:22:08;8.73;;;3.25;;
39540;SDS011;25219;52.244;21.006;2023-05-13T08:24:34;8.67;;;2.90;;
39540;SDS011;25219;52.244;21.006;2023-05-13T08:26:59;5.43;;;3.30;;
39540;SDS011;25219;52.244;21.006;2023-05-13T08:29:24;6.43;;;2.90;;
39540;SDS011;25219;52.244;21.006;2023-05-13T08:31:49;5.73;;;2.47;;
39540;SDS011;25219;52.244;21.006;2023-05-13T08:34:14;3.65;;;2.08;;
39540;SDS011;25219;52.244;21.006;2023-05-13T08:36:40;5.57;;;2.05;;
39540;SDS011;25219;52.244;21.006;2023-05-13T08:39:06;5.80;;;2.47;;
39540;SDS011;25219;52.244;21.006;2023-05-13T08:41:31;4.18;;;2.35;;
39540;SDS011;25219;52.244;21.006;2023-05-13T08:43:58;4.05;;;2.17;;
39540;SDS011;25219;52.244;21.006;2023-05-13T08:46:24;3.15;;;2.08;;
39540;SDS011;25219;52.244;21.006;2023-05-13T08:48:51;3.95;;;1.90;;
39540;SDS011;25219;52.244;21.006;2023-05-13T08:51:17;3.95;;;1.88;;
39540;SDS011;25219;52.244;21.006;2023-05-13T08:53:42;3.67;;;1.63;;
39540;SDS011;25219;52.244;21.006;2023-05-13T08:56:08;3.53;;;1.83;;
39540;SDS011;25219;52.244;21.006;2023-05-13T08:58:33;3.53;;;1.73;;
39540;SDS011;25219;52.244;21.006;2023-05-13T09:00:59;5.10;;;2.03;;
39540;SDS011;25219;52.244;21.006;2023-05-13T09:03:24;2.05;;;1.58;;
39540;SDS011;25219;52.244;21.006;2023-05-13T09:05:51;6.55;;;1.90;;
39540;SDS011;25219;52.244;21.006;2023-05-13T09:08:16;6.30;;;1.53;;
39540;SDS011;25219;52.244;21.006;2023-05-13T09:10:42;3.20;;;1.47;;
39540;SDS011;25219;52.244;21.006;2023-05-13T09:13:07;5.47;;;2.43;;
39540;SDS011;25219;52.244;21.006;2023-05-13T09:15:32;2.80;;;1.60;;
39540;SDS011;25219;52.244;21.006;2023-05-13T09:20:22;4.57;;;2.37;;
39540;SDS011;25219;52.244;21.006;2023-05-13T09:22:56;2.92;;;1.83;;
39540;SDS011;25219;52.244;21.006;2023-05-13T09:25:22;3.45;;;1.70;;
39540;SDS011;25219;52.244;21.006;2023-05-13T09:27:54;3.42;;;1.98;;
39540;SDS011;25219;52.244;21.006;2023-05-13T09:30:22;4.80;;;2.05;;
39540;SDS011;25219;52.244;21.006;2023-05-13T09:35:32;5.97;;;1.90;;
39540;SDS011;25219;52.244;21.006;2023-05-13T09:37:57;9.73;;;1.90;;
39540;SDS011;25219;52.244;21.006;2023-05-13T09:40:22;7.65;;;2.28;;
39540;SDS011;25219;52.244;21.006;2023-05-13T09:42:48;2.50;;;1.40;;
39540;SDS011;25219;52.244;21.006;2023-05-13T09:45:14;4.22;;;1.50;;
39540;SDS011;25219;52.244;21.006;2023-05-13T09:47:40;5.18;;;1.60;;
39540;SDS011;25219;52.244;21.006;2023-05-13T09:50:06;4.30;;;1.80;;
39540;SDS011;25219;52.244;21.006;2023-05-13T09:52:32;2.28;;;1.80;;
39540;SDS011;25219;52.244;21.006;2023-05-13T09:54:58;5.20;;;1.40;;
39540;SDS011;25219;52.244;21.006;2023-05-13T09:57:26;3.25;;;1.55;;
39540;SDS011;25219;52.244;21.006;2023-05-13T09:59:56;4.65;;;1.85;;
39540;SDS011;25219;52.244;21.006;2023-05-13T10:02:22;2.10;;;1.60;;
39540;SDS011;25219;52.244;21.006;2023-05-13T10:04:47;6.13;;;2.03;;
39540;SDS011;25219;52.244;21.006;2023-05-13T10:07:12;3.70;;;1.90;;
39540;SDS011;25219;52.244;21.006;2023-05-13T10:09:38;2.75;;;1.73;;
39540;SDS011;25219;52.244;21.006;2023-05-13T10:12:05;3.38;;;1.80;;
39540;SDS011;25219;52.244;21.006;2023-05-13T10:14:31;5.25;;;1.75;;
39540;SDS011;25219;52.244;21.006;2023-05-13T10:16:56;4.90;;;2.10;;
39540;SDS011;25219;52.244;21.006;2023-05-13T10:19:22;3.60;;;1.90;;
39540;SDS011;25219;52.244;21.006;2023-05-13T10:21:49;4.93;;;1.90;;
39540;SDS011;25219;52.244;21.006;2023-05-13T10:24:15;3.50;;;2.53;;
39540;SDS011;25219;52.244;21.006;2023-05-13T10:26:41;6.57;;;2.00;;
39540;SDS011;25219;52.244;21.006;2023-05-13T10:29:07;4.72;;;2.20;;
39540;SDS011;25219;52.244;21.006;2023-05-13T10:31:34;3.72;;;2.00;;
39540;SDS011;25219;52.244;21.006;2023-05-13T10:34:00;4.50;;;2.13;;
39540;SDS011;25219;52.244;21.006;2023-05-13T10:44:26;5.13;;;2.33;;
39540;SDS011;25219;52.244;21.006;2023-05-13T10:46:51;9.35;;;1.98;;
39540;SDS011;25219;52.244;21.006;2023-05-13T10:49:19;4.13;;;2.38;;
39540;SDS011;25219;52.244;21.006;2023-05-13T10:51:46;4.78;;;2.00;;
39540;SDS011;25219;52.244;21.006;2023-05-13T10:54:19;5.15;;;1.70;;
39540;SDS011;25219;52.244;21.006;2023-05-13T10:56:45;3.35;;;1.88;;
39540;SDS011;25219;52.244;21.006;2023-05-13T10:59:11;5.75;;;2.60;;
39540;SDS011;25219;52.244;21.006;2023-05-13T11:01:37;4.28;;;2.30;;
39540;SDS011;25219;52.244;21.006;2023-05-13T11:04:07;3.17;;;1.70;;
39540;SDS011;25219;52.244;21.006;2023-05-13T11:06:36;4.20;;;1.70;;
39540;SDS011;25219;52.244;21.006;2023-05-13T11:09:05;3.50;;;1.88;;
39540;SDS011;25219;52.244;21.006;2023-05-13T11:11:31;2.30;;;1.80;;
39540;SDS011;25219;52.244;21.006;2023-05-13T11:14:15;8.40;;;2.15;;
39540;SDS011;25219;52.244;21.006;2023-05-13T11:19:26;5.32;;;2.00;;
39540;SDS011;25219;52.244;21.006;2023-05-13T11:21:52;2.47;;;1.40;;
39540;SDS011;25219;52.244;21.006;2023-05-13T11:24:18;6.85;;;2.00;;
39540;SDS011;25219;52.244;21.006;2023-05-13T11:29:09;3.50;;;1.60;;
39540;SDS011;25219;52.244;21.006;2023-05-13T11:31:41;4.10;;;1.80;;
39540;SDS011;25219;52.244;21.006;2023-05-13T11:34:07;5.45;;;2.00;;
39540;SDS011;25219;52.244;21.006;2023-05-13T11:36:36;6.22;;;2.00;;
39540;SDS011;25219;52.244;21.006;2023-05-13T11:39:06;2.83;;;2.30;;
39540;SDS011;25219;52.244;21.006;2023-05-13T11:41:32;6.15;;;1.95;;
39540;SDS011;25219;52.244;21.006;2023-05-13T11:43:58;8.68;;;2.42;;
39540;SDS011;25219;52.244;21.006;2023-05-13T11:46:23;4.38;;;2.13;;
39540;SDS011;25219;52.244;21.006;2023-05-13T11:48:50;1.80;;;1.60;;
39540;SDS011;25219;52.244;21.006;2023-05-13T11:51:16;4.57;;;1.92;;
39540;SDS011;25219;52.244;21.006;2023-05-13T11:53:42;3.95;;;2.38;;
39540;SDS011;25219;52.244;21.006;2023-05-13T11:56:08;3.95;;;2.10;;
39540;SDS011;25219;52.244;21.006;2023-05-13T11:58:34;12.30;;;2.00;;
39540;SDS011;25219;52.244;21.006;2023-05-13T12:00:59;3.97;;;2.00;;
39540;SDS011;25219;52.244;21.006;2023-05-13T12:03:26;9.37;;;2.07;;
39540;SDS011;25219;52.244;21.006;2023-05-13T12:05:59;4.22;;;1.73;;
39540;SDS011;25219;52.244;21.006;2023-05-13T12:08:24;4.85;;;2.10;;
39540;SDS011;25219;52.244;21.006;2023-05-13T12:10:50;6.15;;;2.35;;
39540;SDS011;25219;52.244;21.006;2023-05-13T12:13:15;3.63;;;1.73;;
39540;SDS011;25219;52.244;21.006;2023-05-13T12:15:40;4.53;;;2.15;;
39540;SDS011;25219;52.244;21.006;2023-05-13T12:18:06;5.13;;;1.60;;
39540;SDS011;25219;52.244;21.006;2023-05-13T12:20:31;7.38;;;1.90;;
39540;SDS011;25219;52.244;21.006;2023-05-13T12:22:58;3.83;;;1.88;;
39540;SDS011;25219;52.244;21.006;2023-05-13T12:27:59;6.35;;;2.03;;
39540;SDS011;25219;52.244;21.006;2023-05-13T12:30:24;3.42;;;1.90;;
39540;SDS011;25219;52.244;21.006;2023-05-13T12:32:49;6.28;;;3.00;;
39540;SDS011;25219;52.244;21.006;2023-05-13T12:35:15;4.07;;;2.72;;
39540;SDS011;25219;52.244;21.006;2023-05-13T12:37:40;2.08;;;1.83;;
39540;SDS011;25219;52.244;21.006;2023-05-13T12:40:09;4.43;;;1.67;;
39540;SDS011;25219;52.244;21.006;2023-05-13T12:42:35;3.42;;;1.77;;
39540;SDS011;25219;52.244;21.006;2023-05-13T12:45:00;3.67;;;1.90;;
39540;SDS011;25219;52.244;21.006;2023-05-13T12:47:26;3.60;;;2.40;;
39540;SDS011;25219;52.244;21.006;2023-05-13T12:49:55;5.10;;;2.30;;
39540;SDS011;25219;52.244;21.006;2023-05-13T12:52:22;5.97;;;2.05;;
39540;SDS011;25219;52.244;21.006;2023-05-13T12:54:47;4.50;;;2.60;;
39540;SDS011;25219;52.244;21.006;2023-05-13T12:57:14;3.63;;;2.10;;
39540;SDS011;25219;52.244;21.006;2023-05-13T12:59:39;4.15;;;2.50;;
39540;SDS011;25219;52.244;21.006;2023-05-13T13:02:05;5.13;;;2.03;;
39540;SDS011;25219;52.244;21.006;2023-05-13T13:04:30;6.15;;;2.03;;
39540;SDS011;25219;52.244;21.006;2023-05-13T13:06:56;3.90;;;1.60;;
39540;SDS011;25219;52.244;21.006;2023-05-13T13:09:21;2.53;;;1.60;;
39540;SDS011;25219;52.244;21.006;2023-05-13T13:11:46;3.50;;;2.20;;
39540;SDS011;25219;52.244;21.006;2023-05-13T13:14:11;5.28;;;2.55;;
39540;SDS011;25219;52.244;21.006;2023-05-13T13:16:37;4.75;;;2.40;;
39540;SDS011;25219;52.244;21.006;2023-05-13T13:19:02;6.83;;;2.10;;
39540;SDS011;25219;52.244;21.006;2023-05-13T13:21:27;5.90;;;2.25;;
39540;SDS011;25219;52.244;21.006;2023-05-13T13:23:52;2.27;;;1.90;;
39540;SDS011;25219;52.244;21.006;2023-05-13T13:26:17;2.10;;;1.90;;
39540;SDS011;25219;52.244;21.006;2023-05-13T13:28:43;9.40;;;3.73;;
39540;SDS011;25219;52.244;21.006;2023-05-13T13:31:08;10.90;;;4.33;;
39540;SDS011;25219;52.244;21.006;2023-05-13T13:33:33;5.87;;;2.70;;
39540;SDS011;25219;52.244;21.006;2023-05-13T13:35:59;4.45;;;2.15;;
39540;SDS011;25219;52.244;21.006;2023-05-13T13:38:24;4.32;;;1.50;;
39540;SDS011;25219;52.244;21.006;2023-05-13T13:40:49;5.13;;;3.20;;
39540;SDS011;25219;52.244;21.006;2023-05-13T13:43:14;3.00;;;2.10;;
39540;SDS011;25219;52.244;21.006;2023-05-13T13:45:39;5.50;;;2.73;;
39540;SDS011;25219;52.244;21.006;2023-05-13T13:48:05;6.10;;;2.17;;
39540;SDS011;25219;52.244;21.006;2023-05-13T13:50:30;5.38;;;2.63;;
39540;SDS011;25219;52.244;21.006;2023-05-13T13:52:55;5.90;;;2.97;;
39540;SDS011;25219;52.244;21.006;2023-05-13T13:55:21;5.13;;;3.07;;
39540;SDS011;25219;52.244;21.006;2023-05-13T13:57:47;8.40;;;2.50;;
39540;SDS011;25219;52.244;21.006;2023-05-13T14:00:12;2.25;;;1.65;;
39540;SDS011;25219;52.244;21.006;2023-05-13T14:02:38;4.43;;;2.15;;
39540;SDS011;25219;52.244;21.006;2023-05-13T14:05:04;2.28;;;1.70;;
39540;SDS011;25219;52.244;21.006;2023-05-13T14:07:30;2.00;;;1.58;;
39540;SDS011;25219;52.244;21.006;2023-05-13T14:09:55;4.27;;;2.00;;
39540;SDS011;25219;52.244;21.006;2023-05-13T14:12:20;5.90;;;1.77;;
39540;SDS011;25219;52.244;21.006;2023-05-13T14:14:45;9.47;;;1.90;;
39540;SDS011;25219;52.244;21.006;2023-05-13T14:17:11;10.23;;;1.90;;
39540;SDS011;25219;52.244;21.006;2023-05-13T14:19:36;18.07;;;2.93;;
39540;SDS011;25219;52.244;21.006;2023-05-13T14:22:01;18.40;;;2.23;;
39540;SDS011;25219;52.244;21.006;2023-05-13T14:24:26;4.70;;;1.60;;
39540;SDS011;25219;52.244;21.006;2023-05-13T14:26:52;6.90;;;1.70;;
39540;SDS011;25219;52.244;21.006;2023-05-13T14:29:17;7.03;;;1.52;;
39540;SDS011;25219;52.244;21.006;2023-05-13T14:31:42;5.87;;;1.20;;
39540;SDS011;25219;52.244;21.006;2023-05-13T14:34:07;4.83;;;1.57;;
39540;SDS011;25219;52.244;21.006;2023-05-13T14:36:33;8.40;;;2.10;;
39540;SDS011;25219;52.244;21.006;2023-05-13T14:38:58;3.00;;;1.10;;
39540;SDS011;25219;52.244;21.006;2023-05-13T14:41:23;2.67;;;1.07;;
39540;SDS011;25219;52.244;21.006;2023-05-13T14:43:49;2.83;;;1.35;;